createdAt,value
2023-05-22T00:00:54.900Z,2.31
2023-05-22T00:01:54.926Z,2.17
2023-05-22T00:02:55.059Z,2.23
2023-05-22T00:03:54.936Z,2.17
2023-05-22T00:04:54.985Z,2.28
2023-05-22T00:05:54.941Z,2.28
2023-05-22T00:06:54.975Z,2.26
2023-05-22T00:07:54.973Z,2.20
2023-05-22T00:08:54.975Z,2.26
2023-05-22T00:09:54.995Z,2.46
2023-05-22T00:10:54.995Z,2.57
2023-05-22T00:11:55.022Z,2.63
2023-05-22T00:12:55.019Z,2.46
2023-05-22T00:13:55.022Z,2.35
2023-05-22T00:14:55.078Z,2.10
2023-05-22T00:15:55.089Z,1.95
2023-05-22T00:16:55.164Z,2.06
2023-05-22T00:17:55.091Z,2.10
2023-05-22T00:18:55.127Z,1.96
2023-05-22T00:19:55.131Z,1.98
2023-05-22T00:20:55.096Z,2.01
2023-05-22T00:21:55.141Z,2.26
2023-05-22T00:22:55.131Z,2.27
2023-05-22T00:23:55.123Z,2.16
2023-05-22T00:24:55.166Z,2.12
2023-05-22T00:25:55.140Z,2.11
2023-05-22T00:26:55.144Z,2.12
2023-05-22T00:27:55.190Z,2.28
2023-05-22T00:28:55.180Z,2.32
2023-05-22T00:29:55.203Z,2.39
2023-05-22T00:30:55.202Z,2.34
2023-05-22T00:31:55.238Z,2.48
2023-05-22T00:32:55.264Z,2.60
2023-05-22T00:33:55.296Z,2.57
2023-05-22T00:34:55.303Z,2.44
2023-05-22T00:35:55.324Z,2.45
2023-05-22T00:36:55.291Z,2.34
2023-05-22T00:37:55.353Z,2.30
2023-05-22T00:38:55.352Z,2.03
2023-05-22T00:39:55.372Z,2.02
2023-05-22T00:40:55.375Z,1.92
2023-05-22T00:41:55.437Z,1.90
2023-05-22T00:42:55.441Z,1.80
2023-05-22T00:43:55.458Z,1.81
2023-05-22T00:44:55.479Z,1.79
2023-05-22T00:45:55.518Z,1.81
2023-05-22T00:46:55.603Z,1.84
2023-05-22T00:47:55.577Z,1.87
2023-05-22T00:48:55.608Z,1.88
2023-05-22T00:49:55.554Z,1.85
2023-05-22T00:50:55.609Z,1.85
2023-05-22T00:51:55.643Z,1.87
2023-05-22T00:52:55.592Z,1.84
2023-05-22T00:53:55.604Z,1.77
2023-05-22T00:54:55.641Z,1.95
2023-05-22T00:55:55.632Z,1.97
2023-05-22T00:56:55.670Z,1.98
2023-05-22T00:57:55.661Z,2.10
2023-05-22T00:58:55.662Z,2.00
2023-05-22T00:59:55.672Z,2.16
2023-05-22T01:00:55.752Z,2.13
2023-05-22T01:01:55.773Z,2.27
2023-05-22T01:02:55.827Z,2.22
2023-05-22T01:03:55.885Z,2.23
2023-05-22T01:04:55.742Z,2.10
2023-05-22T01:05:55.778Z,2.18
2023-05-22T01:06:55.786Z,2.14
2023-05-22T01:07:55.801Z,2.17
2023-05-22T01:08:55.800Z,2.20
2023-05-22T01:09:55.817Z,2.25
2023-05-22T01:10:55.873Z,2.05
2023-05-22T01:11:55.849Z,2.14
2023-05-22T01:12:55.860Z,2.17
2023-05-22T01:13:55.869Z,2.01
2023-05-22T01:14:55.881Z,2.20
2023-05-22T01:15:55.943Z,2.23
2023-05-22T01:16:55.920Z,2.34
2023-05-22T01:17:56.019Z,2.16
2023-05-22T01:18:56.027Z,2.06
2023-05-22T01:19:55.980Z,2.07
2023-05-22T01:20:55.988Z,2.05
2023-05-22T01:21:56.043Z,2.05
2023-05-22T01:22:56.013Z,2.08
2023-05-22T01:23:56.014Z,2.06
2023-05-22T01:24:56.027Z,2.04
2023-05-22T01:25:56.056Z,2.06
2023-05-22T01:26:56.059Z,2.08
2023-05-22T01:27:56.071Z,1.96
2023-05-22T01:28:56.099Z,2.04
2023-05-22T01:29:56.110Z,2.03
2023-05-22T01:30:56.116Z,2.10
2023-05-22T01:31:56.147Z,2.34
2023-05-22T01:32:56.189Z,2.35
2023-05-22T01:33:56.382Z,2.29
2023-05-22T01:34:56.224Z,2.23
2023-05-22T01:35:56.241Z,2.08
2023-05-22T01:36:56.302Z,2.11
2023-05-22T01:37:56.262Z,2.09
2023-05-22T01:38:56.255Z,2.24
2023-05-22T01:39:56.363Z,2.11
2023-05-22T01:40:56.323Z,2.10
2023-05-22T01:41:56.325Z,2.03
2023-05-22T01:42:56.418Z,2.01
2023-05-22T01:43:56.847Z,2.03
2023-05-22T01:44:56.330Z,2.04
2023-05-22T01:45:56.439Z,2.03
2023-05-22T01:46:56.382Z,2.00
2023-05-22T01:47:56.389Z,2.06
2023-05-22T01:48:56.393Z,2.08
2023-05-22T01:49:56.418Z,2.07
2023-05-22T01:50:56.437Z,2.01
2023-05-22T01:51:56.454Z,2.13
2023-05-22T01:52:56.489Z,2.21
2023-05-22T01:53:56.627Z,2.18
2023-05-22T01:54:56.691Z,2.35
2023-05-22T01:55:56.657Z,2.35
2023-05-22T01:56:56.695Z,2.37
2023-05-22T01:57:56.622Z,2.25
2023-05-22T01:58:57.355Z,2.37
2023-05-22T01:59:56.665Z,2.31
2023-05-22T02:00:56.708Z,2.42
2023-05-22T02:01:56.663Z,2.36
2023-05-22T02:02:56.862Z,2.21
2023-05-22T02:03:56.708Z,2.14
2023-05-22T02:04:56.717Z,2.24
2023-05-22T02:05:56.740Z,2.33
2023-05-22T02:06:56.747Z,2.36
2023-05-22T02:07:56.779Z,2.32
2023-05-22T02:08:56.787Z,2.29
2023-05-22T02:09:56.823Z,2.29
2023-05-22T02:10:56.848Z,2.30
2023-05-22T02:11:56.856Z,2.22
2023-05-22T02:12:56.890Z,2.30
2023-05-22T02:13:56.910Z,2.28
2023-05-22T02:14:56.957Z,2.27
2023-05-22T02:15:56.997Z,2.28
2023-05-22T02:16:57.003Z,2.25
2023-05-22T02:17:57.077Z,2.28
2023-05-22T02:18:57.058Z,2.32
2023-05-22T02:19:57.046Z,2.19
2023-05-22T02:20:57.082Z,2.28
2023-05-22T02:21:57.099Z,2.28
2023-05-22T02:22:57.116Z,2.28
2023-05-22T02:23:57.124Z,2.28
2023-05-22T02:24:57.167Z,2.27
2023-05-22T02:25:57.160Z,2.25
2023-05-22T02:26:57.189Z,2.26
2023-05-22T02:27:57.208Z,2.41
2023-05-22T02:28:57.231Z,2.45
2023-05-22T02:29:57.260Z,2.50
2023-05-22T02:30:57.312Z,2.54
2023-05-22T02:31:57.317Z,2.50
2023-05-22T02:32:57.376Z,2.47
2023-05-22T02:33:57.348Z,2.42
2023-05-22T02:34:57.376Z,2.48
2023-05-22T02:35:57.408Z,2.47
2023-05-22T02:36:57.421Z,2.47
2023-05-22T02:37:57.460Z,2.45
2023-05-22T02:38:57.485Z,2.43
2023-05-22T02:39:57.475Z,2.47
2023-05-22T02:40:57.512Z,2.48
2023-05-22T02:41:57.527Z,2.48
2023-05-22T02:42:57.582Z,2.43
2023-05-22T02:43:57.611Z,2.51
2023-05-22T02:44:57.606Z,2.59
2023-05-22T02:45:57.629Z,2.48
2023-05-22T02:46:57.692Z,2.54
2023-05-22T02:47:57.685Z,2.62
2023-05-22T02:48:57.700Z,2.58
2023-05-22T02:49:57.699Z,2.54
2023-05-22T02:50:57.747Z,2.50
2023-05-22T02:51:57.759Z,2.48
2023-05-22T02:52:57.794Z,2.44
2023-05-22T02:53:57.831Z,2.54
2023-05-22T02:54:57.810Z,2.50
2023-05-22T02:55:57.834Z,2.47
2023-05-22T02:56:57.863Z,2.53
2023-05-22T02:57:57.892Z,2.46
2023-05-22T02:58:57.909Z,2.56
2023-05-22T02:59:57.956Z,2.65
2023-05-22T03:00:57.959Z,2.64
2023-05-22T03:01:58.063Z,2.60
2023-05-22T03:02:58.061Z,2.50
2023-05-22T03:03:58.186Z,2.51
2023-05-22T03:04:58.058Z,2.60
2023-05-22T03:05:58.089Z,2.62
2023-05-22T03:06:58.118Z,2.62
2023-05-22T03:07:58.161Z,2.65
2023-05-22T03:08:58.169Z,2.71
2023-05-22T03:09:58.199Z,2.63
2023-05-22T03:10:58.225Z,2.60
2023-05-22T03:11:58.244Z,2.56
2023-05-22T03:12:58.273Z,2.61
2023-05-22T03:13:58.289Z,2.52
2023-05-22T03:14:58.329Z,2.50
2023-05-22T03:15:58.361Z,2.48
2023-05-22T03:16:58.376Z,2.50
2023-05-22T03:17:58.420Z,2.42
2023-05-22T03:18:58.474Z,2.43
2023-05-22T03:19:58.443Z,2.32
2023-05-22T03:20:58.470Z,2.53
2023-05-22T03:21:58.512Z,2.51
2023-05-22T03:22:58.560Z,2.56
2023-05-22T03:23:58.561Z,2.60
2023-05-22T03:24:58.589Z,2.56
2023-05-22T03:25:58.610Z,2.62
2023-05-22T03:26:58.660Z,2.58
2023-05-22T03:27:58.667Z,2.57
2023-05-22T03:28:58.763Z,2.63
2023-05-22T03:29:58.745Z,2.81
2023-05-22T03:30:58.747Z,2.86
2023-05-22T03:31:58.767Z,2.80
2023-05-22T03:32:58.859Z,2.82
2023-05-22T03:33:58.884Z,2.89
2023-05-22T03:34:58.861Z,2.75
2023-05-22T03:35:58.882Z,2.83
2023-05-22T03:36:58.907Z,2.83
2023-05-22T03:37:58.947Z,2.86
2023-05-22T03:38:58.961Z,2.82
2023-05-22T03:39:58.995Z,2.90
2023-05-22T03:40:58.998Z,2.95
2023-05-22T03:41:59.024Z,2.89
2023-05-22T03:42:59.072Z,2.89
2023-05-22T03:43:59.092Z,2.92
2023-05-22T03:44:59.131Z,2.78
2023-05-22T03:45:59.249Z,2.89
2023-05-22T03:46:59.205Z,3.06
2023-05-22T03:47:59.234Z,2.98
2023-05-22T03:48:59.243Z,2.97
2023-05-22T03:49:59.255Z,2.97
2023-05-22T03:50:59.256Z,3.00
2023-05-22T03:51:59.237Z,3.01
2023-05-22T03:52:59.234Z,3.11
2023-05-22T03:53:59.218Z,3.09
2023-05-22T03:54:59.216Z,3.16
2023-05-22T03:55:59.216Z,3.18
2023-05-22T03:56:59.219Z,3.30
2023-05-22T03:57:59.199Z,3.03
2023-05-22T03:58:59.188Z,3.07
2023-05-22T03:59:59.177Z,3.02
2023-05-22T04:00:59.173Z,3.04
2023-05-22T04:01:59.178Z,3.01
2023-05-22T04:02:59.211Z,3.07
2023-05-22T04:03:59.161Z,2.96
2023-05-22T04:04:59.213Z,2.99
2023-05-22T04:05:59.217Z,3.06
2023-05-22T04:06:59.258Z,2.96
2023-05-22T04:07:59.268Z,2.99
2023-05-22T04:08:59.316Z,2.97
2023-05-22T04:09:59.336Z,3.04
2023-05-22T04:10:59.377Z,3.05
2023-05-22T04:11:59.409Z,3.08
2023-05-22T04:12:59.467Z,3.04
2023-05-22T04:13:59.484Z,3.02
2023-05-22T04:14:59.518Z,3.00
2023-05-22T04:15:59.564Z,3.17
2023-05-22T04:16:59.611Z,3.17
2023-05-22T04:17:59.635Z,3.33
2023-05-22T04:18:59.660Z,3.37
2023-05-22T04:19:59.664Z,3.29
2023-05-22T04:20:59.696Z,3.27
2023-05-22T04:21:59.741Z,3.06
2023-05-22T04:22:59.769Z,3.15
2023-05-22T04:23:59.787Z,3.33
2023-05-22T04:24:59.829Z,3.39
2023-05-22T04:25:59.846Z,3.36
2023-05-22T04:26:59.908Z,3.35
2023-05-22T04:27:59.947Z,3.30
2023-05-22T04:28:59.954Z,3.22
2023-05-22T04:30:00.023Z,3.14
2023-05-22T04:31:00.031Z,3.12
2023-05-22T04:32:00.039Z,3.14
2023-05-22T04:33:00.247Z,3.28
2023-05-22T04:34:00.186Z,3.29
2023-05-22T04:35:00.196Z,3.39
2023-05-22T04:36:00.202Z,3.58
2023-05-22T04:37:00.200Z,3.60
2023-05-22T04:38:00.238Z,3.60
2023-05-22T04:39:00.282Z,3.52
2023-05-22T04:40:00.307Z,3.56
2023-05-22T04:41:00.345Z,3.67
2023-05-22T04:42:00.382Z,3.58
2023-05-22T04:43:00.405Z,3.67
2023-05-22T04:44:00.442Z,3.58
2023-05-22T04:45:00.459Z,3.38
2023-05-22T04:46:00.512Z,3.42
2023-05-22T04:47:00.582Z,3.45
2023-05-22T04:48:00.600Z,3.56
2023-05-22T04:49:00.577Z,3.54
2023-05-22T04:50:00.593Z,3.51
2023-05-22T04:51:00.645Z,3.59
2023-05-22T04:52:00.669Z,3.53
2023-05-22T04:53:00.800Z,3.31
2023-05-22T04:54:00.909Z,3.42
2023-05-22T04:55:01.797Z,3.50
2023-05-22T04:56:00.858Z,3.54
2023-05-22T04:57:00.918Z,3.53
2023-05-22T04:58:00.936Z,3.68
2023-05-22T04:59:00.897Z,3.68
2023-05-22T05:00:00.925Z,3.76
2023-05-22T05:01:01.034Z,3.75
2023-05-22T05:02:01.074Z,3.71
2023-05-22T05:03:01.279Z,3.51
2023-05-22T05:04:01.278Z,3.38
2023-05-22T05:05:01.115Z,3.52
2023-05-22T05:06:01.153Z,3.57
2023-05-22T05:07:01.150Z,3.77
2023-05-22T05:08:01.184Z,3.65
2023-05-22T05:09:01.369Z,3.63
2023-05-22T05:10:01.239Z,3.39
2023-05-22T05:11:01.294Z,3.30
2023-05-22T05:12:01.293Z,3.32
2023-05-22T05:13:01.327Z,3.22
2023-05-22T05:14:01.388Z,3.43
2023-05-22T05:15:01.387Z,3.55
2023-05-22T05:16:01.497Z,3.42
2023-05-22T05:17:01.507Z,3.34
2023-05-22T05:18:01.557Z,3.31
2023-05-22T05:19:01.622Z,3.30
2023-05-22T05:20:01.540Z,3.26
2023-05-22T05:21:01.595Z,3.41
2023-05-22T05:22:01.649Z,3.43
2023-05-22T05:23:01.667Z,3.50
2023-05-22T05:24:01.694Z,3.27
2023-05-22T05:25:01.760Z,3.31
2023-05-22T05:26:01.754Z,3.49
2023-05-22T05:27:01.769Z,3.44
2023-05-22T05:28:01.797Z,3.38
2023-05-22T05:29:01.823Z,3.66
2023-05-22T05:30:01.895Z,3.43
2023-05-22T05:31:01.906Z,3.47
2023-05-22T05:32:01.925Z,3.48
2023-05-22T05:33:01.972Z,3.65
2023-05-22T05:34:01.994Z,3.59
2023-05-22T05:35:02.210Z,3.87
2023-05-22T05:36:02.020Z,4.53
2023-05-22T05:37:02.038Z,4.84
2023-05-22T05:38:02.081Z,5.41
2023-05-22T05:39:02.121Z,6.15
2023-05-22T05:40:02.172Z,7.10
2023-05-22T05:41:02.145Z,8.36
2023-05-22T05:42:02.232Z,9.22
2023-05-22T05:43:02.192Z,10.40
2023-05-22T05:44:02.158Z,12.11
2023-05-22T05:45:02.160Z,13.51
2023-05-22T05:46:02.273Z,14.74
2023-05-22T05:47:02.172Z,15.58
2023-05-22T05:48:02.343Z,16.48
2023-05-22T05:49:02.202Z,17.92
2023-05-22T05:50:02.151Z,18.91
2023-05-22T05:51:02.208Z,20.19
2023-05-22T05:52:02.370Z,23.31
2023-05-22T05:53:02.321Z,24.06
2023-05-22T05:54:02.294Z,25.01
2023-05-22T05:55:02.325Z,27.34
2023-05-22T05:56:03.172Z,29.63
2023-05-22T05:57:02.365Z,30.75
2023-05-22T05:58:02.449Z,34.51
2023-05-22T05:59:02.456Z,34.64
2023-05-22T06:00:02.396Z,35.27
2023-05-22T06:01:02.363Z,36.33
2023-05-22T06:02:02.355Z,36.34
2023-05-22T06:03:02.400Z,36.45
2023-05-22T06:04:02.401Z,34.77
2023-05-22T06:05:02.320Z,32.05
2023-05-22T06:06:02.282Z,29.58
2023-05-22T06:07:02.247Z,27.32
2023-05-22T06:08:02.242Z,26.59
2023-05-22T06:09:02.209Z,24.80
2023-05-22T06:10:02.227Z,23.58
2023-05-22T06:11:02.277Z,23.16
2023-05-22T06:12:02.197Z,21.82
2023-05-22T06:13:02.170Z,20.71
2023-05-22T06:14:02.153Z,20.07
2023-05-22T06:15:03.050Z,20.10
2023-05-22T06:16:05.714Z,20.60
2023-05-22T06:17:02.134Z,20.69
2023-05-22T06:18:02.131Z,21.07
2023-05-22T06:19:02.106Z,22.23
2023-05-22T06:20:02.115Z,23.59
2023-05-22T06:21:02.145Z,25.17
2023-05-22T06:22:02.012Z,27.56
2023-05-22T06:23:02.007Z,29.62
2023-05-22T06:24:01.991Z,32.26
2023-05-22T06:25:01.982Z,35.24
2023-05-22T06:26:01.927Z,38.27
2023-05-22T06:27:01.915Z,38.34
2023-05-22T06:28:01.905Z,36.49
2023-05-22T06:29:01.933Z,36.53
2023-05-22T06:30:03.069Z,37.47
2023-05-22T06:31:02.955Z,40.07
2023-05-22T06:32:02.107Z,40.34
2023-05-22T06:33:02.140Z,43.05
2023-05-22T06:34:02.271Z,43.15
2023-05-22T06:35:02.073Z,43.72
2023-05-22T06:36:02.055Z,44.96
2023-05-22T06:37:02.180Z,47.37
2023-05-22T06:38:02.027Z,51.58
2023-05-22T06:39:01.983Z,52.50
2023-05-22T06:40:01.982Z,52.11
2023-05-22T06:41:01.913Z,49.74
2023-05-22T06:42:01.887Z,52.49
2023-05-22T06:43:01.866Z,54.76
2023-05-22T06:44:01.890Z,58.17
2023-05-22T06:45:02.061Z,57.63
2023-05-22T06:46:02.096Z,57.65
2023-05-22T06:47:01.960Z,52.20
2023-05-22T06:48:02.058Z,49.32
2023-05-22T06:49:02.034Z,51.76
2023-05-22T06:50:02.156Z,53.07
2023-05-22T06:51:02.096Z,48.42
2023-05-22T06:52:03.907Z,42.46
2023-05-22T06:53:02.110Z,42.52
2023-05-22T06:54:02.082Z,42.74
2023-05-22T06:55:02.043Z,41.23
2023-05-22T06:56:02.013Z,42.93
2023-05-22T06:57:01.987Z,43.91
2023-05-22T06:58:01.947Z,47.25
2023-05-22T06:59:01.914Z,44.81
2023-05-22T07:00:01.909Z,44.23
2023-05-22T07:01:02.111Z,45.71
2023-05-22T07:02:01.820Z,50.90
2023-05-22T07:03:01.844Z,56.72
2023-05-22T07:04:01.777Z,58.83
2023-05-22T07:05:01.750Z,58.83
2023-05-22T07:06:01.748Z,53.90
2023-05-22T07:07:01.736Z,53.79
2023-05-22T07:08:01.831Z,58.50
2023-05-22T07:09:01.720Z,61.30
2023-05-22T07:10:01.751Z,64.27
2023-05-22T07:11:01.762Z,65.64
2023-05-22T07:12:01.801Z,67.39
2023-05-22T07:13:01.778Z,67.11
2023-05-22T07:14:01.764Z,65.10
2023-05-22T07:15:01.800Z,64.15
2023-05-22T07:16:01.776Z,64.26
2023-05-22T07:17:01.814Z,65.31
2023-05-22T07:18:01.857Z,65.10
2023-05-22T07:19:01.796Z,65.08
2023-05-22T07:20:01.783Z,63.54
2023-05-22T07:21:01.686Z,65.74
2023-05-22T07:22:01.736Z,62.22
2023-05-22T07:23:01.648Z,61.75
2023-05-22T07:24:01.646Z,63.73
2023-05-22T07:25:01.695Z,64.58
2023-05-22T07:26:01.577Z,64.59
2023-05-22T07:27:01.533Z,64.65
2023-05-22T07:28:01.542Z,61.75
2023-05-22T07:29:01.457Z,59.99
2023-05-22T07:30:01.473Z,60.55
2023-05-22T07:31:01.382Z,60.34
2023-05-22T07:32:01.408Z,59.22
2023-05-22T07:33:01.404Z,59.44
2023-05-22T07:34:01.331Z,59.80
2023-05-22T07:35:01.290Z,58.95
2023-05-22T07:36:02.011Z,55.40
2023-05-22T07:37:02.995Z,52.73
2023-05-22T07:38:01.223Z,47.02
2023-05-22T07:39:01.155Z,39.15
2023-05-22T07:40:01.069Z,38.55
2023-05-22T07:41:01.060Z,37.53
2023-05-22T07:42:01.846Z,37.69
2023-05-22T07:43:00.999Z,37.75
2023-05-22T07:44:00.958Z,37.89
2023-05-22T07:45:01.513Z,38.00
2023-05-22T07:46:01.080Z,37.97
2023-05-22T07:47:00.913Z,37.64
2023-05-22T07:48:02.679Z,35.96
2023-05-22T07:49:00.925Z,35.88
2023-05-22T07:50:00.779Z,36.31
2023-05-22T07:51:00.737Z,36.79
2023-05-22T07:52:00.696Z,37.57
2023-05-22T07:53:00.640Z,38.37
2023-05-22T07:54:00.703Z,37.65
2023-05-22T07:55:00.599Z,35.26
2023-05-22T07:56:00.530Z,34.62
2023-05-22T07:57:00.504Z,32.44
2023-05-22T07:58:00.507Z,30.21
2023-05-22T07:59:00.450Z,27.87
2023-05-22T08:00:00.517Z,25.84
2023-05-22T08:01:00.475Z,23.71
2023-05-22T08:02:00.458Z,21.69
2023-05-22T08:03:00.495Z,20.42
2023-05-22T08:04:00.663Z,19.04
2023-05-22T08:05:00.456Z,17.76
2023-05-22T08:06:00.360Z,16.15
2023-05-22T08:07:00.269Z,16.18
2023-05-22T08:08:00.257Z,15.68
2023-05-22T08:09:00.217Z,14.33
2023-05-22T08:10:00.221Z,13.19
2023-05-22T08:11:03.779Z,12.96
2023-05-22T08:12:00.176Z,12.86
2023-05-22T08:13:00.099Z,11.75
2023-05-22T08:14:00.102Z,10.12
2023-05-22T08:15:00.018Z,9.96
2023-05-22T08:16:01.356Z,8.91
2023-05-22T08:16:59.946Z,7.94
2023-05-22T08:17:59.921Z,7.01
2023-05-22T08:18:59.897Z,6.16
2023-05-22T08:19:59.900Z,5.33
2023-05-22T08:20:59.795Z,5.09
2023-05-22T08:21:59.696Z,4.93
2023-05-22T08:22:59.690Z,5.74
2023-05-22T08:23:59.630Z,5.77
2023-05-22T08:24:59.566Z,5.52
2023-05-22T08:25:59.536Z,5.06
2023-05-22T08:26:59.498Z,4.71
2023-05-22T08:27:59.480Z,4.64
2023-05-22T08:28:59.416Z,4.36
2023-05-22T08:29:59.368Z,4.20
2023-05-22T08:30:59.332Z,3.86
2023-05-22T08:31:59.391Z,3.30
2023-05-22T08:32:59.411Z,3.08
2023-05-22T08:33:59.334Z,2.86
2023-05-22T08:34:59.349Z,2.52
2023-05-22T08:35:59.310Z,2.29
2023-05-22T08:36:59.280Z,2.21
2023-05-22T08:37:59.307Z,1.98
2023-05-22T08:38:59.284Z,1.91
2023-05-22T08:39:59.178Z,1.65
2023-05-22T08:40:59.144Z,1.54
2023-05-22T08:41:59.144Z,1.43
2023-05-22T08:42:59.079Z,1.32
2023-05-22T08:43:59.188Z,1.25
2023-05-22T08:44:59.042Z,1.17
2023-05-22T08:45:59.048Z,1.10
2023-05-22T08:46:59.055Z,1.04
2023-05-22T08:47:59.032Z,0.99
2023-05-22T08:48:58.956Z,0.96
2023-05-22T08:49:58.925Z,0.91
2023-05-22T08:50:58.930Z,0.85
2023-05-22T08:51:58.912Z,0.85
2023-05-22T08:52:59.447Z,0.84
2023-05-22T08:53:58.862Z,0.79
2023-05-22T08:54:58.817Z,0.71
2023-05-22T08:55:58.829Z,0.69
2023-05-22T08:56:58.768Z,0.65
2023-05-22T08:57:58.775Z,0.65
2023-05-22T08:58:58.777Z,0.61
2023-05-22T08:59:59.081Z,0.58
2023-05-22T09:00:58.763Z,0.60
2023-05-22T09:01:58.747Z,0.60
2023-05-22T09:02:58.853Z,0.57
2023-05-22T09:03:58.752Z,0.56
2023-05-22T09:04:58.697Z,0.54
2023-05-22T09:05:58.661Z,0.52
2023-05-22T09:06:58.732Z,0.52
2023-05-22T09:08:08.445Z,0.54
2023-05-22T09:08:59.850Z,0.54
2023-05-22T09:09:58.596Z,0.55
2023-05-22T09:10:58.660Z,0.56
2023-05-22T09:11:58.593Z,0.55
2023-05-22T09:12:58.600Z,0.54
2023-05-22T09:13:59.179Z,0.54
2023-05-22T09:14:58.437Z,0.56
2023-05-22T09:15:58.411Z,0.56
2023-05-22T09:16:58.393Z,0.56
2023-05-22T09:17:58.362Z,0.54
2023-05-22T09:18:58.321Z,0.54
2023-05-22T09:19:58.312Z,0.55
2023-05-22T09:20:58.174Z,0.55
2023-05-22T09:21:58.143Z,0.53
2023-05-22T09:22:58.158Z,0.51
2023-05-22T09:23:58.095Z,0.51
2023-05-22T09:24:58.617Z,0.51
2023-05-22T09:25:58.028Z,0.52
2023-05-22T09:26:58.031Z,0.50
2023-05-22T09:27:57.980Z,0.51
2023-05-22T09:28:57.970Z,0.51
2023-05-22T09:29:57.913Z,0.53
2023-05-22T09:30:57.925Z,0.54
2023-05-22T09:31:57.904Z,0.55
2023-05-22T09:32:57.850Z,0.53
2023-05-22T09:33:57.835Z,0.51
2023-05-22T09:34:57.766Z,0.52
2023-05-22T09:35:57.845Z,0.55
2023-05-22T09:36:57.711Z,0.66
2023-05-22T09:37:57.733Z,0.72
2023-05-22T09:38:57.644Z,0.71
2023-05-22T09:39:57.609Z,0.70
2023-05-22T09:40:57.636Z,0.80
2023-05-22T09:41:57.606Z,0.60
2023-05-22T09:42:58.071Z,0.50
2023-05-22T09:43:58.337Z,0.34
2023-05-22T09:44:57.622Z,0.34
2023-05-22T09:45:57.607Z,0.34
2023-05-22T09:46:57.569Z,0.34
2023-05-22T09:47:57.649Z,0.34
2023-05-22T09:48:57.514Z,0.34
2023-05-22T09:49:57.644Z,0.34
2023-05-22T09:50:57.517Z,0.34
2023-05-22T09:51:57.650Z,0.34
2023-05-22T09:52:57.551Z,0.34
2023-05-22T09:53:58.052Z,0.34
2023-05-22T09:54:57.584Z,0.34
2023-05-22T09:55:57.572Z,0.34
2023-05-22T09:56:57.690Z,0.34
2023-05-22T09:57:57.551Z,0.34
2023-05-22T09:58:57.516Z,0.34
2023-05-22T09:59:57.516Z,0.34
2023-05-22T10:00:57.481Z,0.34
2023-05-22T10:01:57.637Z,0.34
2023-05-22T10:02:57.484Z,0.34
2023-05-22T10:03:57.421Z,0.34
2023-05-22T10:04:57.494Z,0.34
2023-05-22T10:05:57.331Z,0.34
2023-05-22T10:06:57.307Z,0.34
2023-05-22T10:07:57.264Z,0.34
2023-05-22T10:08:57.234Z,0.34
2023-05-22T10:09:58.088Z,0.34
2023-05-22T10:10:57.293Z,0.34
2023-05-22T10:11:57.155Z,0.34
2023-05-22T10:12:57.227Z,0.34
2023-05-22T10:13:57.269Z,0.34
2023-05-22T10:14:57.200Z,0.34
2023-05-22T10:15:57.032Z,0.34
2023-05-22T10:16:57.101Z,0.34
2023-05-22T10:17:57.102Z,0.34
2023-05-22T10:18:57.095Z,0.34
2023-05-22T10:19:57.078Z,0.34
2023-05-22T10:20:56.969Z,0.34
2023-05-22T10:21:57.024Z,0.34
2023-05-22T10:22:56.927Z,0.60
2023-05-22T10:23:56.899Z,0.84
2023-05-22T10:24:56.906Z,0.97
2023-05-22T10:25:56.908Z,1.29
2023-05-22T10:26:57.150Z,1.52
2023-05-22T10:27:57.102Z,1.70
2023-05-22T10:28:57.778Z,1.95
2023-05-22T10:29:57.009Z,2.06
2023-05-22T10:30:57.070Z,2.44
2023-05-22T10:31:57.232Z,2.97
2023-05-22T10:32:57.265Z,3.78
2023-05-22T10:33:57.129Z,4.68
2023-05-22T10:34:58.073Z,5.17
2023-05-22T10:35:57.226Z,6.41
2023-05-22T10:37:03.142Z,6.57
2023-05-22T10:37:58.081Z,4.39
2023-05-22T10:38:57.227Z,3.93
2023-05-22T10:39:57.211Z,3.27
2023-05-22T10:40:57.193Z,2.18
2023-05-22T10:41:57.002Z,3.12
2023-05-22T10:42:56.991Z,4.24
2023-05-22T10:43:57.020Z,5.65
2023-05-22T10:44:57.137Z,7.21
2023-05-22T10:45:57.234Z,9.58
2023-05-22T10:46:56.954Z,9.65
2023-05-22T10:47:56.948Z,10.04
2023-05-22T10:48:56.844Z,10.45
2023-05-22T10:49:57.578Z,12.33
2023-05-22T10:50:59.260Z,16.01
2023-05-22T10:51:56.675Z,20.29
2023-05-22T10:52:56.647Z,20.15
2023-05-22T10:53:56.565Z,19.59
2023-05-22T10:54:56.519Z,21.56
2023-05-22T10:55:56.491Z,24.16
2023-05-22T10:56:56.520Z,24.99
2023-05-22T10:57:56.411Z,24.02
2023-05-22T10:58:56.305Z,25.83
2023-05-22T10:59:56.304Z,31.07
2023-05-22T11:00:56.296Z,38.49
2023-05-22T11:01:56.209Z,38.12
2023-05-22T11:02:58.578Z,39.48
2023-05-22T11:03:57.236Z,39.61
2023-05-22T11:04:55.992Z,39.78
2023-05-22T11:05:55.919Z,38.32
2023-05-22T11:06:55.914Z,39.58
2023-05-22T11:07:55.818Z,46.87
2023-05-22T11:08:55.786Z,60.91
2023-05-22T11:09:55.713Z,72.19
2023-05-22T11:10:55.660Z,72.38
2023-05-22T11:11:55.653Z,74.72
2023-05-22T11:12:55.555Z,81.61
2023-05-22T11:13:55.476Z,57.97
2023-05-22T11:14:55.517Z,97.02
2023-05-22T11:15:55.387Z,104.49
2023-05-22T11:16:55.413Z,99.42
2023-05-22T11:17:55.510Z,51.19
2023-05-22T11:18:55.264Z,48.30
2023-05-22T11:19:55.348Z,59.97
2023-05-22T11:20:55.129Z,42.82
2023-05-22T11:21:55.058Z,37.67
2023-05-22T11:22:55.043Z,35.66
2023-05-22T11:23:54.953Z,20.42
2023-05-22T11:24:54.915Z,14.49
2023-05-22T11:25:54.879Z,8.21
2023-05-22T11:26:54.828Z,10.56
2023-05-22T11:27:54.834Z,11.69
2023-05-22T11:28:54.793Z,10.73
2023-05-22T11:29:54.703Z,13.53
2023-05-22T11:30:54.661Z,5.53
2023-05-22T11:31:54.597Z,2.64
2023-05-22T11:32:54.640Z,1.87
2023-05-22T11:33:54.566Z,1.05
2023-05-22T11:34:54.555Z,0.88
2023-05-22T11:35:54.502Z,0.51
2023-05-22T11:36:54.520Z,0.55
2023-05-22T11:37:54.466Z,0.94
2023-05-22T11:38:54.439Z,1.31
2023-05-22T11:39:54.410Z,1.46
2023-05-22T11:40:54.397Z,1.78
2023-05-22T11:41:54.342Z,2.03
2023-05-22T11:42:54.483Z,2.53
2023-05-22T11:43:54.270Z,3.61
2023-05-22T11:44:54.213Z,4.46
2023-05-22T11:45:54.180Z,5.18
2023-05-22T11:46:54.240Z,6.38
2023-05-22T11:47:54.234Z,7.71
2023-05-22T11:48:54.329Z,9.55
2023-05-22T11:49:54.222Z,11.04
2023-05-22T11:50:54.279Z,13.88
2023-05-22T11:51:54.294Z,16.05
2023-05-22T11:52:54.320Z,18.42
2023-05-22T11:53:54.330Z,21.29
2023-05-22T11:54:54.361Z,24.20
2023-05-22T11:55:54.390Z,27.70
2023-05-22T11:56:54.431Z,32.92
2023-05-22T11:57:54.466Z,37.76
2023-05-22T11:58:54.501Z,43.22
2023-05-22T11:59:54.523Z,51.29
2023-05-22T12:00:54.572Z,55.66
2023-05-22T12:01:54.575Z,62.57
2023-05-22T12:02:54.676Z,71.33
2023-05-22T12:03:54.705Z,79.67
2023-05-22T12:04:54.727Z,86.83
2023-05-22T12:05:54.709Z,90.89
2023-05-22T12:06:54.944Z,96.78
2023-05-22T12:07:54.721Z,105.68
2023-05-22T12:08:54.750Z,113.74
2023-05-22T12:09:54.774Z,123.77
2023-05-22T12:10:54.822Z,132.65
2023-05-22T12:11:54.834Z,131.59
2023-05-22T12:12:54.873Z,145.94
2023-05-22T12:13:54.905Z,147.64
2023-05-22T12:14:54.924Z,153.75
2023-05-22T12:15:54.975Z,167.31
2023-05-22T12:16:55.036Z,171.43
2023-05-22T12:17:55.069Z,177.08
2023-05-22T12:18:55.088Z,184.06
2023-05-22T12:19:55.076Z,205.29
2023-05-22T12:20:55.215Z,205.68
2023-05-22T12:21:55.143Z,226.82
2023-05-22T12:22:55.183Z,234.66
2023-05-22T12:23:55.195Z,235.25
2023-05-22T12:24:55.248Z,250.67
2023-05-22T12:25:55.239Z,268.04
2023-05-22T12:26:55.277Z,270.10
2023-05-22T12:27:55.321Z,277.54
2023-05-22T12:28:55.350Z,275.19
2023-05-22T12:29:55.399Z,275.07
2023-05-22T12:30:55.417Z,270.86
2023-05-22T12:31:55.489Z,279.72
2023-05-22T12:32:55.564Z,273.52
2023-05-22T12:33:55.530Z,283.71
2023-05-22T12:34:55.560Z,304.97
2023-05-22T12:35:55.574Z,302.22
2023-05-22T12:36:55.635Z,293.49
2023-05-22T12:37:55.664Z,311.75
2023-05-22T12:38:55.687Z,310.81
2023-05-22T12:39:55.737Z,322.24
2023-05-22T12:40:55.759Z,347.78
2023-05-22T12:41:55.783Z,357.97
2023-05-22T12:42:55.816Z,356.73
2023-05-22T12:43:55.849Z,347.75
2023-05-22T12:44:55.859Z,349.71
2023-05-22T12:45:55.893Z,349.06
2023-05-22T12:46:55.893Z,368.53
2023-05-22T12:47:55.989Z,390.83
2023-05-22T12:48:55.989Z,383.17
2023-05-22T12:49:55.978Z,379.49
2023-05-22T12:50:56.006Z,396.04
2023-05-22T12:51:56.040Z,406.46
2023-05-22T12:52:56.066Z,417.19
2023-05-22T12:53:56.118Z,414.78
2023-05-22T12:54:56.163Z,420.70
2023-05-22T12:55:56.175Z,413.01
2023-05-22T12:56:56.234Z,416.71
2023-05-22T12:57:56.204Z,421.86
2023-05-22T12:58:56.242Z,418.75
2023-05-22T12:59:56.266Z,416.99
2023-05-22T13:00:56.277Z,418.25
2023-05-22T13:01:56.377Z,407.13
2023-05-22T13:02:56.359Z,409.20
2023-05-22T13:03:56.362Z,432.26
2023-05-22T13:04:56.358Z,426.61
2023-05-22T13:05:56.383Z,427.36
2023-05-22T13:06:56.430Z,429.17
2023-05-22T13:07:56.465Z,417.39